sensor_id;sensor_type;location;lat;lon;timestamp;P1;durP1;ratioP1;P2;durP2;ratioP2
57826;SDS011;43656;57.746;11.780;2023-06-01T00:01:42;13.98;;;3.78;;
57826;SDS011;43656;57.746;11.780;2023-06-01T00:04:07;21.45;;;3.53;;
57826;SDS011;43656;57.746;11.780;2023-06-01T00:06:34;18.90;;;4.10;;
57826;SDS011;43656;57.746;11.780;2023-06-01T00:09:00;14.48;;;3.20;;
57826;SDS011;43656;57.746;11.780;2023-06-01T00:11:27;16.92;;;3.10;;
57826;SDS011;43656;57.746;11.780;2023-06-01T00:13:52;12.00;;;3.38;;
57826;SDS011;43656;57.746;11.780;2023-06-01T00:16:18;14.55;;;3.10;;
57826;SDS011;43656;57.746;11.780;2023-06-01T00:18:44;14.95;;;3.35;;
57826;SDS011;43656;57.746;11.780;2023-06-01T00:21:09;13.90;;;3.15;;
57826;SDS011;43656;57.746;11.780;2023-06-01T00:23:35;12.20;;;2.80;;
57826;SDS011;43656;57.746;11.780;2023-06-01T00:26:01;10.77;;;2.90;;
57826;SDS011;43656;57.746;11.780;2023-06-01T00:28:27;11.68;;;2.63;;
57826;SDS011;43656;57.746;11.780;2023-06-01T00:30:52;13.02;;;2.83;;
57826;SDS011;43656;57.746;11.780;2023-06-01T00:33:21;10.45;;;2.97;;
57826;SDS011;43656;57.746;11.780;2023-06-01T00:35:47;15.13;;;3.33;;
57826;SDS011;43656;57.746;11.780;2023-06-01T00:38:12;19.10;;;3.50;;
57826;SDS011;43656;57.746;11.780;2023-06-01T00:40:38;15.38;;;3.22;;
57826;SDS011;43656;57.746;11.780;2023-06-01T00:43:03;10.70;;;2.90;;
57826;SDS011;43656;57.746;11.780;2023-06-01T00:45:29;11.18;;;2.67;;
57826;SDS011;43656;57.746;11.780;2023-06-01T00:47:55;10.00;;;2.92;;
57826;SDS011;43656;57.746;11.780;2023-06-01T00:50:21;7.72;;;2.63;;
57826;SDS011;43656;57.746;11.780;2023-06-01T00:52:48;11.20;;;3.17;;
57826;SDS011;43656;57.746;11.780;2023-06-01T00:55:15;11.23;;;2.95;;
57826;SDS011;43656;57.746;11.780;2023-06-01T00:57:42;15.80;;;3.25;;
57826;SDS011;43656;57.746;11.780;2023-06-01T01:00:08;13.40;;;3.40;;
57826;SDS011;43656;57.746;11.780;2023-06-01T01:02:39;16.65;;;3.55;;
57826;SDS011;43656;57.746;11.780;2023-06-01T01:05:07;14.25;;;3.10;;
57826;SDS011;43656;57.746;11.780;2023-06-01T01:18:16;17.50;;;3.75;;
57826;SDS011;43656;57.746;11.780;2023-06-01T01:20:48;9.60;;;2.53;;
57826;SDS011;43656;57.746;11.780;2023-06-01T01:29:16;13.10;;;3.15;;
57826;SDS011;43656;57.746;11.780;2023-06-01T01:31:44;11.05;;;3.03;;
57826;SDS011;43656;57.746;11.780;2023-06-01T01:34:13;17.10;;;3.80;;
57826;SDS011;43656;57.746;11.780;2023-06-01T01:36:38;16.10;;;3.65;;
57826;SDS011;43656;57.746;11.780;2023-06-01T01:39:06;13.63;;;3.08;;
57826;SDS011;43656;57.746;11.780;2023-06-01T01:41:31;13.63;;;3.22;;
57826;SDS011;43656;57.746;11.780;2023-06-01T01:43:57;14.43;;;3.85;;
57826;SDS011;43656;57.746;11.780;2023-06-01T01:46:25;18.23;;;3.60;;
57826;SDS011;43656;57.746;11.780;2023-06-01T01:51:26;14.80;;;3.70;;
57826;SDS011;43656;57.746;11.780;2023-06-01T01:53:57;15.40;;;3.72;;
57826;SDS011;43656;57.746;11.780;2023-06-01T01:56:24;10.70;;;3.00;;
57826;SDS011;43656;57.746;11.780;2023-06-01T01:58:51;10.07;;;3.22;;
57826;SDS011;43656;57.746;11.780;2023-06-01T02:01:17;18.60;;;4.00;;
57826;SDS011;43656;57.746;11.780;2023-06-01T02:03:43;13.43;;;4.10;;
57826;SDS011;43656;57.746;11.780;2023-06-01T02:06:09;14.27;;;4.57;;
57826;SDS011;43656;57.746;11.780;2023-06-01T02:08:34;17.00;;;4.20;;
57826;SDS011;43656;57.746;11.780;2023-06-01T02:11:00;17.25;;;4.00;;
57826;SDS011;43656;57.746;11.780;2023-06-01T02:13:25;19.83;;;5.55;;
57826;SDS011;43656;57.746;11.780;2023-06-01T02:15:51;20.63;;;5.00;;
57826;SDS011;43656;57.746;11.780;2023-06-01T02:18:16;14.90;;;4.03;;
57826;SDS011;43656;57.746;11.780;2023-06-01T02:20:43;23.25;;;4.43;;
57826;SDS011;43656;57.746;11.780;2023-06-01T02:23:10;10.43;;;3.80;;
57826;SDS011;43656;57.746;11.780;2023-06-01T02:25:35;14.65;;;4.22;;
57826;SDS011;43656;57.746;11.780;2023-06-01T02:28:01;16.77;;;4.35;;
57826;SDS011;43656;57.746;11.780;2023-06-01T02:30:26;14.90;;;4.05;;
57826;SDS011;43656;57.746;11.780;2023-06-01T02:32:52;12.50;;;3.85;;
57826;SDS011;43656;57.746;11.780;2023-06-01T02:35:17;14.88;;;3.88;;
57826;SDS011;43656;57.746;11.780;2023-06-01T02:37:43;12.07;;;3.50;;
57826;SDS011;43656;57.746;11.780;2023-06-01T02:40:08;18.40;;;4.15;;
57826;SDS011;43656;57.746;11.780;2023-06-01T02:42:37;14.20;;;3.75;;
57826;SDS011;43656;57.746;11.780;2023-06-01T02:45:04;17.23;;;3.50;;
57826;SDS011;43656;57.746;11.780;2023-06-01T02:47:31;11.85;;;3.88;;
57826;SDS011;43656;57.746;11.780;2023-06-01T02:49:56;11.60;;;3.15;;
57826;SDS011;43656;57.746;11.780;2023-06-01T02:52:22;8.45;;;2.85;;
57826;SDS011;43656;57.746;11.780;2023-06-01T02:54:47;12.85;;;3.60;;
57826;SDS011;43656;57.746;11.780;2023-06-01T02:57:13;12.30;;;3.47;;
57826;SDS011;43656;57.746;11.780;2023-06-01T02:59:38;12.02;;;3.72;;
57826;SDS011;43656;57.746;11.780;2023-06-01T03:02:04;14.43;;;3.60;;
57826;SDS011;43656;57.746;11.780;2023-06-01T03:04:29;10.65;;;3.60;;
57826;SDS011;43656;57.746;11.780;2023-06-01T03:06:57;9.32;;;3.30;;
57826;SDS011;43656;57.746;11.780;2023-06-01T03:09:24;10.30;;;3.30;;
57826;SDS011;43656;57.746;11.780;2023-06-01T03:11:49;7.22;;;3.05;;
57826;SDS011;43656;57.746;11.780;2023-06-01T03:14:15;10.77;;;3.65;;
57826;SDS011;43656;57.746;11.780;2023-06-01T03:16:41;7.88;;;2.72;;
57826;SDS011;43656;57.746;11.780;2023-06-01T03:19:06;8.30;;;3.05;;
57826;SDS011;43656;57.746;11.780;2023-06-01T03:21:32;11.10;;;2.92;;
57826;SDS011;43656;57.746;11.780;2023-06-01T03:23:57;5.97;;;2.60;;
57826;SDS011;43656;57.746;11.780;2023-06-01T03:26:23;7.13;;;2.45;;
57826;SDS011;43656;57.746;11.780;2023-06-01T03:28:50;9.80;;;2.80;;
57826;SDS011;43656;57.746;11.780;2023-06-01T03:31:16;5.80;;;2.22;;
57826;SDS011;43656;57.746;11.780;2023-06-01T03:33:41;7.80;;;2.50;;
57826;SDS011;43656;57.746;11.780;2023-06-01T03:36:07;9.65;;;2.50;;
57826;SDS011;43656;57.746;11.780;2023-06-01T03:38:33;5.88;;;2.38;;
57826;SDS011;43656;57.746;11.780;2023-06-01T03:41:01;9.60;;;2.60;;
57826;SDS011;43656;57.746;11.780;2023-06-01T03:43:27;8.80;;;2.40;;
57826;SDS011;43656;57.746;11.780;2023-06-01T03:45:52;7.80;;;2.30;;
57826;SDS011;43656;57.746;11.780;2023-06-01T03:48:18;5.25;;;2.15;;
57826;SDS011;43656;57.746;11.780;2023-06-01T03:50:44;5.65;;;2.22;;
57826;SDS011;43656;57.746;11.780;2023-06-01T03:53:10;7.03;;;2.22;;
57826;SDS011;43656;57.746;11.780;2023-06-01T03:55:35;6.85;;;2.15;;
57826;SDS011;43656;57.746;11.780;2023-06-01T03:58:01;4.97;;;2.15;;
57826;SDS011;43656;57.746;11.780;2023-06-01T04:00:28;4.35;;;1.92;;
57826;SDS011;43656;57.746;11.780;2023-06-01T04:02:54;4.95;;;2.00;;
57826;SDS011;43656;57.746;11.780;2023-06-01T04:05:22;4.82;;;1.85;;
57826;SDS011;43656;57.746;11.780;2023-06-01T04:07:48;7.57;;;1.98;;
57826;SDS011;43656;57.746;11.780;2023-06-01T04:10:15;5.30;;;1.95;;
57826;SDS011;43656;57.746;11.780;2023-06-01T04:12:42;7.88;;;1.90;;
57826;SDS011;43656;57.746;11.780;2023-06-01T04:15:12;3.38;;;1.58;;
57826;SDS011;43656;57.746;11.780;2023-06-01T04:17:38;3.20;;;1.65;;
57826;SDS011;43656;57.746;11.780;2023-06-01T04:20:05;5.95;;;1.65;;
57826;SDS011;43656;57.746;11.780;2023-06-01T04:22:34;4.25;;;1.67;;
57826;SDS011;43656;57.746;11.780;2023-06-01T04:25:00;7.47;;;1.50;;
57826;SDS011;43656;57.746;11.780;2023-06-01T04:27:26;1.90;;;1.50;;
57826;SDS011;43656;57.746;11.780;2023-06-01T04:29:52;2.03;;;1.30;;
57826;SDS011;43656;57.746;11.780;2023-06-01T04:32:18;2.72;;;1.38;;
57826;SDS011;43656;57.746;11.780;2023-06-01T04:34:49;4.57;;;1.58;;
57826;SDS011;43656;57.746;11.780;2023-06-01T04:37:18;4.68;;;1.20;;
57826;SDS011;43656;57.746;11.780;2023-06-01T04:39:47;3.08;;;1.20;;
57826;SDS011;43656;57.746;11.780;2023-06-01T04:42:16;4.20;;;1.35;;
57826;SDS011;43656;57.746;11.780;2023-06-01T04:44:44;3.95;;;1.30;;
57826;SDS011;43656;57.746;11.780;2023-06-01T04:47:11;4.38;;;1.35;;
57826;SDS011;43656;57.746;11.780;2023-06-01T04:49:39;1.60;;;1.00;;
57826;SDS011;43656;57.746;11.780;2023-06-01T04:52:07;3.88;;;1.10;;
57826;SDS011;43656;57.746;11.780;2023-06-01T04:54:32;1.63;;;1.00;;
57826;SDS011;43656;57.746;11.780;2023-06-01T04:56:58;3.25;;;0.90;;
57826;SDS011;43656;57.746;11.780;2023-06-01T04:59:23;2.97;;;1.10;;
57826;SDS011;43656;57.746;11.780;2023-06-01T05:01:49;4.93;;;0.95;;
57826;SDS011;43656;57.746;11.780;2023-06-01T05:04:14;2.88;;;0.80;;
57826;SDS011;43656;57.746;11.780;2023-06-01T05:06:39;4.22;;;0.93;;
57826;SDS011;43656;57.746;11.780;2023-06-01T05:09:05;2.97;;;0.80;;
57826;SDS011;43656;57.746;11.780;2023-06-01T05:11:30;2.92;;;0.80;;
57826;SDS011;43656;57.746;11.780;2023-06-01T05:13:56;5.82;;;0.80;;
57826;SDS011;43656;57.746;11.780;2023-06-01T05:16:26;2.40;;;0.80;;
57826;SDS011;43656;57.746;11.780;2023-06-01T05:18:52;2.63;;;0.95;;
57826;SDS011;43656;57.746;11.780;2023-06-01T05:21:18;3.33;;;0.82;;
57826;SDS011;43656;57.746;11.780;2023-06-01T05:23:44;5.05;;;0.88;;
57826;SDS011;43656;57.746;11.780;2023-06-01T05:26:09;2.45;;;0.85;;
57826;SDS011;43656;57.746;11.780;2023-06-01T05:28:35;1.80;;;1.00;;
57826;SDS011;43656;57.746;11.780;2023-06-01T05:31:01;2.60;;;0.98;;
57826;SDS011;43656;57.746;11.780;2023-06-01T05:33:26;3.17;;;0.80;;
57826;SDS011;43656;57.746;11.780;2023-06-01T05:35:52;3.22;;;1.08;;
57826;SDS011;43656;57.746;11.780;2023-06-01T05:38:18;2.67;;;0.90;;
57826;SDS011;43656;57.746;11.780;2023-06-01T05:40:44;2.72;;;0.82;;
57826;SDS011;43656;57.746;11.780;2023-06-01T05:43:11;7.95;;;0.93;;
57826;SDS011;43656;57.746;11.780;2023-06-01T05:45:36;2.17;;;0.85;;
57826;SDS011;43656;57.746;11.780;2023-06-01T05:48:02;4.07;;;0.98;;
57826;SDS011;43656;57.746;11.780;2023-06-01T05:50:28;2.35;;;0.90;;
57826;SDS011;43656;57.746;11.780;2023-06-01T05:52:53;3.33;;;0.80;;
57826;SDS011;43656;57.746;11.780;2023-06-01T05:55:19;1.55;;;0.80;;
57826;SDS011;43656;57.746;11.780;2023-06-01T05:57:44;2.63;;;0.70;;
57826;SDS011;43656;57.746;11.780;2023-06-01T06:00:11;4.97;;;0.80;;
57826;SDS011;43656;57.746;11.780;2023-06-01T06:02:41;3.17;;;0.63;;
57826;SDS011;43656;57.746;11.780;2023-06-01T06:05:08;1.23;;;0.50;;
57826;SDS011;43656;57.746;11.780;2023-06-01T06:07:34;2.05;;;0.50;;
57826;SDS011;43656;57.746;11.780;2023-06-01T06:09:59;2.50;;;0.70;;
57826;SDS011;43656;57.746;11.780;2023-06-01T06:12:26;1.85;;;0.60;;
57826;SDS011;43656;57.746;11.780;2023-06-01T06:14:52;2.80;;;0.60;;
57826;SDS011;43656;57.746;11.780;2023-06-01T06:17:18;2.15;;;0.43;;
57826;SDS011;43656;57.746;11.780;2023-06-01T06:19:44;3.47;;;0.60;;
57826;SDS011;43656;57.746;11.780;2023-06-01T06:22:09;1.55;;;0.63;;
57826;SDS011;43656;57.746;11.780;2023-06-01T06:24:36;1.23;;;0.40;;
57826;SDS011;43656;57.746;11.780;2023-06-01T06:27:01;1.35;;;0.55;;
57826;SDS011;43656;57.746;11.780;2023-06-01T06:29:28;2.45;;;0.50;;
57826;SDS011;43656;57.746;11.780;2023-06-01T06:31:54;7.80;;;0.52;;
57826;SDS011;43656;57.746;11.780;2023-06-01T06:34:20;3.10;;;0.60;;
57826;SDS011;43656;57.746;11.780;2023-06-01T06:36:45;2.03;;;0.50;;
57826;SDS011;43656;57.746;11.780;2023-06-01T06:39:11;0.90;;;0.45;;
57826;SDS011;43656;57.746;11.780;2023-06-01T06:41:37;3.72;;;0.40;;
57826;SDS011;43656;57.746;11.780;2023-06-01T06:44:05;2.90;;;0.40;;
57826;SDS011;43656;57.746;11.780;2023-06-01T06:46:30;1.52;;;0.40;;
57826;SDS011;43656;57.746;11.780;2023-06-01T06:48:56;4.35;;;0.40;;
57826;SDS011;43656;57.746;11.780;2023-06-01T06:51:21;1.77;;;0.47;;
57826;SDS011;43656;57.746;11.780;2023-06-01T06:53:47;4.72;;;0.50;;
57826;SDS011;43656;57.746;11.780;2023-06-01T06:56:12;2.80;;;0.30;;
57826;SDS011;43656;57.746;11.780;2023-06-01T06:58:38;1.85;;;0.40;;
57826;SDS011;43656;57.746;11.780;2023-06-01T07:01:03;0.47;;;0.30;;
57826;SDS011;43656;57.746;11.780;2023-06-01T07:03:30;2.10;;;0.63;;
57826;SDS011;43656;57.746;11.780;2023-06-01T07:05:56;1.02;;;0.30;;
57826;SDS011;43656;57.746;11.780;2023-06-01T07:08:22;2.15;;;0.35;;
57826;SDS011;43656;57.746;11.780;2023-06-01T07:10:48;1.70;;;0.30;;
57826;SDS011;43656;57.746;11.780;2023-06-01T07:13:13;2.67;;;0.57;;
57826;SDS011;43656;57.746;11.780;2023-06-01T07:15:39;3.80;;;0.50;;
57826;SDS011;43656;57.746;11.780;2023-06-01T07:18:05;4.80;;;0.40;;
57826;SDS011;43656;57.746;11.780;2023-06-01T07:20:31;1.27;;;0.40;;
57826;SDS011;43656;57.746;11.780;2023-06-01T07:22:57;0.65;;;0.30;;
57826;SDS011;43656;57.746;11.780;2023-06-01T07:25:22;2.90;;;0.63;;
57826;SDS011;43656;57.746;11.780;2023-06-01T07:27:48;2.85;;;0.50;;
57826;SDS011;43656;57.746;11.780;2023-06-01T07:30:14;5.00;;;0.40;;
57826;SDS011;43656;57.746;11.780;2023-06-01T07:32:40;3.22;;;0.35;;
57826;SDS011;43656;57.746;11.780;2023-06-01T07:35:07;4.20;;;0.50;;
57826;SDS011;43656;57.746;11.780;2023-06-01T07:37:33;3.05;;;0.40;;
57826;SDS011;43656;57.746;11.780;2023-06-01T07:39:58;2.00;;;0.50;;
57826;SDS011;43656;57.746;11.780;2023-06-01T07:42:24;2.97;;;0.40;;
57826;SDS011;43656;57.746;11.780;2023-06-01T07:44:49;1.73;;;0.50;;
57826;SDS011;43656;57.746;11.780;2023-06-01T07:47:15;2.97;;;0.30;;
57826;SDS011;43656;57.746;11.780;2023-06-01T07:49:41;1.80;;;0.43;;
57826;SDS011;43656;57.746;11.780;2023-06-01T07:52:07;2.47;;;0.40;;
57826;SDS011;43656;57.746;11.780;2023-06-01T07:54:33;3.78;;;0.40;;
57826;SDS011;43656;57.746;11.780;2023-06-01T07:57:01;1.85;;;0.65;;
57826;SDS011;43656;57.746;11.780;2023-06-01T07:59:28;5.28;;;0.57;;
57826;SDS011;43656;57.746;11.780;2023-06-01T08:01:54;1.42;;;0.40;;
57826;SDS011;43656;57.746;11.780;2023-06-01T08:04:21;2.55;;;0.40;;
57826;SDS011;43656;57.746;11.780;2023-06-01T08:06:47;3.03;;;0.40;;
57826;SDS011;43656;57.746;11.780;2023-06-01T08:09:13;3.50;;;0.43;;
57826;SDS011;43656;57.746;11.780;2023-06-01T08:11:38;3.28;;;0.40;;
57826;SDS011;43656;57.746;11.780;2023-06-01T08:14:05;2.92;;;0.40;;
57826;SDS011;43656;57.746;11.780;2023-06-01T08:16:33;3.65;;;0.35;;
57826;SDS011;43656;57.746;11.780;2023-06-01T08:18:59;3.28;;;0.45;;
57826;SDS011;43656;57.746;11.780;2023-06-01T08:21:25;2.47;;;0.40;;
57826;SDS011;43656;57.746;11.780;2023-06-01T08:23:52;2.83;;;0.40;;
57826;SDS011;43656;57.746;11.780;2023-06-01T08:26:20;1.42;;;0.40;;
57826;SDS011;43656;57.746;11.780;2023-06-01T08:28:46;1.92;;;0.40;;
57826;SDS011;43656;57.746;11.780;2023-06-01T08:31:21;1.92;;;0.60;;
57826;SDS011;43656;57.746;11.780;2023-06-01T08:33:49;3.22;;;0.40;;
57826;SDS011;43656;57.746;11.780;2023-06-01T08:36:19;2.50;;;0.40;;
57826;SDS011;43656;57.746;11.780;2023-06-01T08:38:45;1.42;;;0.50;;
57826;SDS011;43656;57.746;11.780;2023-06-01T08:41:20;2.42;;;0.30;;
57826;SDS011;43656;57.746;11.780;2023-06-01T08:43:57;0.95;;;0.40;;
57826;SDS011;43656;57.746;11.780;2023-06-01T08:46:24;2.38;;;0.40;;
57826;SDS011;43656;57.746;11.780;2023-06-01T08:48:52;1.73;;;0.35;;
57826;SDS011;43656;57.746;11.780;2023-06-01T08:51:20;7.20;;;0.50;;
57826;SDS011;43656;57.746;11.780;2023-06-01T08:53:47;2.55;;;0.40;;
57826;SDS011;43656;57.746;11.780;2023-06-01T08:56:14;3.22;;;0.40;;
57826;SDS011;43656;57.746;11.780;2023-06-01T08:58:40;1.25;;;0.40;;
57826;SDS011;43656;57.746;11.780;2023-06-01T09:01:07;1.85;;;0.55;;
57826;SDS011;43656;57.746;11.780;2023-06-01T09:03:32;1.35;;;0.40;;
57826;SDS011;43656;57.746;11.780;2023-06-01T09:05:58;1.75;;;0.47;;
57826;SDS011;43656;57.746;11.780;2023-06-01T09:08:24;1.92;;;0.60;;
57826;SDS011;43656;57.746;11.780;2023-06-01T09:10:49;1.80;;;0.60;;
57826;SDS011;43656;57.746;11.780;2023-06-01T09:13:29;2.58;;;0.65;;
57826;SDS011;43656;57.746;11.780;2023-06-01T09:15:56;5.25;;;0.60;;
57826;SDS011;43656;57.746;11.780;2023-06-01T09:18:22;0.75;;;0.40;;
57826;SDS011;43656;57.746;11.780;2023-06-01T09:20:47;2.53;;;0.40;;
57826;SDS011;43656;57.746;11.780;2023-06-01T09:23:23;4.05;;;0.50;;
57826;SDS011;43656;57.746;11.780;2023-06-01T09:25:49;1.23;;;0.50;;
57826;SDS011;43656;57.746;11.780;2023-06-01T09:28:53;5.05;;;0.70;;
57826;SDS011;43656;57.746;11.780;2023-06-01T09:31:38;3.13;;;0.70;;
57826;SDS011;43656;57.746;11.780;2023-06-01T09:34:05;7.13;;;0.80;;
57826;SDS011;43656;57.746;11.780;2023-06-01T09:36:31;1.05;;;0.60;;
57826;SDS011;43656;57.746;11.780;2023-06-01T09:39:04;0.82;;;0.52;;
57826;SDS011;43656;57.746;11.780;2023-06-01T09:41:49;1.63;;;0.60;;
57826;SDS011;43656;57.746;11.780;2023-06-01T09:44:21;3.35;;;0.68;;
57826;SDS011;43656;57.746;11.780;2023-06-01T09:46:49;2.28;;;0.73;;
57826;SDS011;43656;57.746;11.780;2023-06-01T09:49:25;3.78;;;0.70;;
57826;SDS011;43656;57.746;11.780;2023-06-01T09:52:07;6.05;;;0.70;;
57826;SDS011;43656;57.746;11.780;2023-06-01T09:54:43;1.17;;;0.52;;
57826;SDS011;43656;57.746;11.780;2023-06-01T09:57:09;5.20;;;0.60;;
57826;SDS011;43656;57.746;11.780;2023-06-01T09:59:43;3.53;;;0.52;;
57826;SDS011;43656;57.746;11.780;2023-06-01T10:02:16;1.80;;;0.80;;
57826;SDS011;43656;57.746;11.780;2023-06-01T10:07:16;1.83;;;0.65;;
57826;SDS011;43656;57.746;11.780;2023-06-01T10:09:44;1.52;;;0.77;;
57826;SDS011;43656;57.746;11.780;2023-06-01T10:12:12;2.30;;;0.70;;
57826;SDS011;43656;57.746;11.780;2023-06-01T10:14:38;2.15;;;0.70;;
57826;SDS011;43656;57.746;11.780;2023-06-01T10:17:04;3.35;;;0.70;;
57826;SDS011;43656;57.746;11.780;2023-06-01T10:19:30;1.83;;;0.75;;
57826;SDS011;43656;57.746;11.780;2023-06-01T10:21:59;1.77;;;0.70;;
57826;SDS011;43656;57.746;11.780;2023-06-01T10:24:25;1.05;;;0.70;;
57826;SDS011;43656;57.746;11.780;2023-06-01T10:29:45;4.03;;;0.77;;
57826;SDS011;43656;57.746;11.780;2023-06-01T10:35:05;2.55;;;0.65;;
57826;SDS011;43656;57.746;11.780;2023-06-01T10:37:31;2.60;;;0.55;;
57826;SDS011;43656;57.746;11.780;2023-06-01T10:42:42;1.38;;;0.60;;
57826;SDS011;43656;57.746;11.780;2023-06-01T10:45:34;2.55;;;0.60;;
57826;SDS011;43656;57.746;11.780;2023-06-01T10:48:06;16.48;;;1.08;;
57826;SDS011;43656;57.746;11.780;2023-06-01T10:50:36;3.92;;;0.75;;
57826;SDS011;43656;57.746;11.780;2023-06-01T11:01:36;2.13;;;0.50;;
57826;SDS011;43656;57.746;11.780;2023-06-01T11:04:07;1.83;;;0.50;;
57826;SDS011;43656;57.746;11.780;2023-06-01T11:06:34;1.10;;;0.40;;
57826;SDS011;43656;57.746;11.780;2023-06-01T11:09:05;1.70;;;0.47;;
57826;SDS011;43656;57.746;11.780;2023-06-01T11:14:13;2.53;;;0.60;;
57826;SDS011;43656;57.746;11.780;2023-06-01T11:16:39;3.63;;;0.43;;
57826;SDS011;43656;57.746;11.780;2023-06-01T11:19:05;0.98;;;0.40;;
57826;SDS011;43656;57.746;11.780;2023-06-01T11:21:40;3.72;;;0.60;;
57826;SDS011;43656;57.746;11.780;2023-06-01T11:24:10;3.08;;;0.50;;
57826;SDS011;43656;57.746;11.780;2023-06-01T11:26:44;2.35;;;0.47;;
57826;SDS011;43656;57.746;11.780;2023-06-01T11:29:15;0.57;;;0.30;;
57826;SDS011;43656;57.746;11.780;2023-06-01T11:31:49;2.17;;;0.60;;
57826;SDS011;43656;57.746;11.780;2023-06-01T11:34:16;2.35;;;0.57;;
57826;SDS011;43656;57.746;11.780;2023-06-01T11:36:46;1.67;;;0.50;;
57826;SDS011;43656;57.746;11.780;2023-06-01T11:39:16;1.95;;;0.90;;
57826;SDS011;43656;57.746;11.780;2023-06-01T11:41:43;0.40;;;0.38;;
57826;SDS011;43656;57.746;11.780;2023-06-01T11:44:09;2.45;;;0.50;;
57826;SDS011;43656;57.746;11.780;2023-06-01T11:46:35;2.33;;;0.60;;
57826;SDS011;43656;57.746;11.780;2023-06-01T11:49:02;0.98;;;0.50;;
57826;SDS011;43656;57.746;11.780;2023-06-01T11:51:38;3.50;;;0.63;;
57826;SDS011;43656;57.746;11.780;2023-06-01T11:54:04;3.10;;;0.60;;
57826;SDS011;43656;57.746;11.780;2023-06-01T11:56:34;0.73;;;0.47;;
57826;SDS011;43656;57.746;11.780;2023-06-01T11:59:01;1.50;;;0.60;;
57826;SDS011;43656;57.746;11.780;2023-06-01T12:01:33;7.05;;;0.60;;
57826;SDS011;43656;57.746;11.780;2023-06-01T12:03:59;1.63;;;0.60;;
57826;SDS011;43656;57.746;11.780;2023-06-01T12:06:27;2.10;;;0.50;;
57826;SDS011;43656;57.746;11.780;2023-06-01T12:08:55;3.45;;;0.50;;
57826;SDS011;43656;57.746;11.780;2023-06-01T12:11:22;5.18;;;0.60;;
57826;SDS011;43656;57.746;11.780;2023-06-01T12:13:54;2.05;;;0.80;;
57826;SDS011;43656;57.746;11.780;2023-06-01T12:16:20;2.90;;;0.50;;
57826;SDS011;43656;57.746;11.780;2023-06-01T12:18:47;1.65;;;0.50;;
57826;SDS011;43656;57.746;11.780;2023-06-01T12:21:12;1.67;;;0.60;;
57826;SDS011;43656;57.746;11.780;2023-06-01T12:23:39;5.63;;;0.60;;
57826;SDS011;43656;57.746;11.780;2023-06-01T12:26:05;2.08;;;0.40;;
57826;SDS011;43656;57.746;11.780;2023-06-01T12:28:51;2.53;;;0.57;;
57826;SDS011;43656;57.746;11.780;2023-06-01T12:31:21;2.22;;;0.60;;
57826;SDS011;43656;57.746;11.780;2023-06-01T12:33:47;2.20;;;0.60;;
57826;SDS011;43656;57.746;11.780;2023-06-01T12:36:34;5.45;;;0.60;;
57826;SDS011;43656;57.746;11.780;2023-06-01T12:39:01;1.08;;;0.40;;
57826;SDS011;43656;57.746;11.780;2023-06-01T12:41:31;2.42;;;0.40;;
57826;SDS011;43656;57.746;11.780;2023-06-01T12:43:57;1.60;;;0.45;;
57826;SDS011;43656;57.746;11.780;2023-06-01T12:46:23;1.55;;;0.40;;
57826;SDS011;43656;57.746;11.780;2023-06-01T12:48:51;2.08;;;0.50;;
57826;SDS011;43656;57.746;11.780;2023-06-01T12:51:18;3.15;;;0.50;;
57826;SDS011;43656;57.746;11.780;2023-06-01T12:53:45;2.13;;;0.40;;
57826;SDS011;43656;57.746;11.780;2023-06-01T12:56:11;0.88;;;0.40;;
57826;SDS011;43656;57.746;11.780;2023-06-01T12:58:37;2.10;;;0.50;;
57826;SDS011;43656;57.746;11.780;2023-06-01T13:01:03;1.70;;;0.70;;
57826;SDS011;43656;57.746;11.780;2023-06-01T13:03:30;1.33;;;0.50;;
57826;SDS011;43656;57.746;11.780;2023-06-01T13:05:55;1.35;;;0.50;;
57826;SDS011;43656;57.746;11.780;2023-06-01T13:08:21;3.65;;;0.52;;
57826;SDS011;43656;57.746;11.780;2023-06-01T13:10:47;2.60;;;0.40;;
57826;SDS011;43656;57.746;11.780;2023-06-01T13:13:13;1.67;;;0.55;;
57826;SDS011;43656;57.746;11.780;2023-06-01T13:15:39;3.70;;;0.60;;
57826;SDS011;43656;57.746;11.780;2023-06-01T13:18:05;2.97;;;0.60;;
57826;SDS011;43656;57.746;11.780;2023-06-01T13:20:31;0.95;;;0.40;;
57826;SDS011;43656;57.746;11.780;2023-06-01T13:22:56;2.40;;;0.50;;
57826;SDS011;43656;57.746;11.780;2023-06-01T13:25:22;1.23;;;0.50;;
57826;SDS011;43656;57.746;11.780;2023-06-01T13:27:48;2.17;;;0.50;;
57826;SDS011;43656;57.746;11.780;2023-06-01T13:30:14;1.23;;;0.40;;
57826;SDS011;43656;57.746;11.780;2023-06-01T13:32:39;4.72;;;0.47;;
57826;SDS011;43656;57.746;11.780;2023-06-01T13:35:05;2.95;;;0.40;;
57826;SDS011;43656;57.746;11.780;2023-06-01T13:37:33;3.25;;;0.57;;
57826;SDS011;43656;57.746;11.780;2023-06-01T13:40:01;2.35;;;0.40;;
57826;SDS011;43656;57.746;11.780;2023-06-01T13:42:27;1.48;;;0.50;;
57826;SDS011;43656;57.746;11.780;2023-06-01T13:44:53;1.20;;;0.50;;
57826;SDS011;43656;57.746;11.780;2023-06-01T13:47:19;1.02;;;0.43;;
57826;SDS011;43656;57.746;11.780;2023-06-01T13:49:45;0.80;;;0.40;;
57826;SDS011;43656;57.746;11.780;2023-06-01T13:52:11;4.68;;;0.40;;
57826;SDS011;43656;57.746;11.780;2023-06-01T13:54:37;1.42;;;0.40;;
57826;SDS011;43656;57.746;11.780;2023-06-01T13:57:03;1.23;;;0.40;;
57826;SDS011;43656;57.746;11.780;2023-06-01T13:59:28;1.20;;;0.30;;
57826;SDS011;43656;57.746;11.780;2023-06-01T14:01:59;1.95;;;0.40;;
57826;SDS011;43656;57.746;11.780;2023-06-01T14:04:25;0.60;;;0.43;;
57826;SDS011;43656;57.746;11.780;2023-06-01T14:06:50;1.83;;;0.40;;
57826;SDS011;43656;57.746;11.780;2023-06-01T14:09:16;3.30;;;0.80;;
57826;SDS011;43656;57.746;11.780;2023-06-01T14:11:42;1.13;;;0.40;;
57826;SDS011;43656;57.746;11.780;2023-06-01T14:14:08;4.45;;;0.45;;
57826;SDS011;43656;57.746;11.780;2023-06-01T14:16:33;1.85;;;0.50;;
57826;SDS011;43656;57.746;11.780;2023-06-01T14:18:58;0.22;;;0.20;;
57826;SDS011;43656;57.746;11.780;2023-06-01T14:21:24;1.88;;;0.50;;
57826;SDS011;43656;57.746;11.780;2023-06-01T14:23:50;3.15;;;0.60;;
57826;SDS011;43656;57.746;11.780;2023-06-01T14:26:15;0.93;;;0.50;;
57826;SDS011;43656;57.746;11.780;2023-06-01T14:28:41;1.00;;;0.40;;
57826;SDS011;43656;57.746;11.780;2023-06-01T14:31:06;1.20;;;0.50;;
57826;SDS011;43656;57.746;11.780;2023-06-01T14:33:32;0.47;;;0.35;;
57826;SDS011;43656;57.746;11.780;2023-06-01T14:35:57;1.30;;;0.50;;
57826;SDS011;43656;57.746;11.780;2023-06-01T14:38:23;1.65;;;0.57;;
57826;SDS011;43656;57.746;11.780;2023-06-01T14:40:48;1.92;;;0.50;;
57826;SDS011;43656;57.746;11.780;2023-06-01T14:43:14;2.28;;;0.40;;
57826;SDS011;43656;57.746;11.780;2023-06-01T14:45:39;2.72;;;0.60;;
57826;SDS011;43656;57.746;11.780;2023-06-01T14:48:05;0.93;;;0.40;;
57826;SDS011;43656;57.746;11.780;2023-06-01T14:50:30;4.38;;;0.63;;
57826;SDS011;43656;57.746;11.780;2023-06-01T14:52:56;1.95;;;0.63;;
57826;SDS011;43656;57.746;11.780;2023-06-01T14:55:24;2.08;;;0.52;;
57826;SDS011;43656;57.746;11.780;2023-06-01T14:57:50;1.15;;;0.40;;
57826;SDS011;43656;57.746;11.780;2023-06-01T15:00:16;1.70;;;0.40;;
57826;SDS011;43656;57.746;11.780;2023-06-01T15:02:43;3.15;;;0.43;;
57826;SDS011;43656;57.746;11.780;2023-06-01T15:05:10;0.90;;;0.50;;
57826;SDS011;43656;57.746;11.780;2023-06-01T15:07:36;1.98;;;0.40;;
57826;SDS011;43656;57.746;11.780;2023-06-01T15:10:01;3.15;;;0.52;;
57826;SDS011;43656;57.746;11.780;2023-06-01T15:12:27;5.30;;;0.82;;